sensor_id;sensor_type;location;lat;lon;timestamp;P1;durP1;ratioP1;P2;durP2;ratioP2
75535;SDS011;64119;52.070;20.804;2023-11-19T00:00:27;34.60;;;14.20;;
75535;SDS011;64119;52.070;20.804;2023-11-19T00:03:16;38.40;;;15.20;;
75535;SDS011;64119;52.070;20.804;2023-11-19T00:05:45;33.10;;;14.50;;
75535;SDS011;64119;52.070;20.804;2023-11-19T00:08:13;37.70;;;16.60;;
75535;SDS011;64119;52.070;20.804;2023-11-19T00:10:41;33.70;;;14.50;;
75535;SDS011;64119;52.070;20.804;2023-11-19T00:13:08;31.00;;;14.70;;
75535;SDS011;64119;52.070;20.804;2023-11-19T00:15:37;36.20;;;16.90;;
75535;SDS011;64119;52.070;20.804;2023-11-19T00:18:07;39.20;;;14.60;;
75535;SDS011;64119;52.070;20.804;2023-11-19T00:20:35;26.00;;;11.40;;
75535;SDS011;64119;52.070;20.804;2023-11-19T00:23:03;30.30;;;13.50;;
75535;SDS011;64119;52.070;20.804;2023-11-19T00:25:31;33.70;;;14.90;;
75535;SDS011;64119;52.070;20.804;2023-11-19T00:27:59;31.10;;;13.50;;
75535;SDS011;64119;52.070;20.804;2023-11-19T00:30:27;33.10;;;12.70;;
75535;SDS011;64119;52.070;20.804;2023-11-19T00:32:55;35.20;;;14.90;;
75535;SDS011;64119;52.070;20.804;2023-11-19T00:35:23;35.50;;;15.40;;
75535;SDS011;64119;52.070;20.804;2023-11-19T00:37:51;37.80;;;16.10;;
75535;SDS011;64119;52.070;20.804;2023-11-19T00:40:19;32.40;;;13.80;;
75535;SDS011;64119;52.070;20.804;2023-11-19T00:42:50;38.30;;;16.90;;
75535;SDS011;64119;52.070;20.804;2023-11-19T00:45:18;36.80;;;14.80;;
75535;SDS011;64119;52.070;20.804;2023-11-19T00:47:46;36.70;;;14.20;;
75535;SDS011;64119;52.070;20.804;2023-11-19T00:50:14;41.40;;;15.30;;
75535;SDS011;64119;52.070;20.804;2023-11-19T00:52:43;41.40;;;17.50;;
75535;SDS011;64119;52.070;20.804;2023-11-19T00:55:11;32.00;;;13.30;;
75535;SDS011;64119;52.070;20.804;2023-11-19T00:57:40;32.40;;;15.10;;
75535;SDS011;64119;52.070;20.804;2023-11-19T01:00:08;41.80;;;17.30;;
75535;SDS011;64119;52.070;20.804;2023-11-19T01:02:47;41.00;;;16.20;;
75535;SDS011;64119;52.070;20.804;2023-11-19T01:05:19;37.00;;;16.20;;
75535;SDS011;64119;52.070;20.804;2023-11-19T01:07:51;26.50;;;10.10;;
75535;SDS011;64119;52.070;20.804;2023-11-19T01:10:21;31.90;;;13.70;;
75535;SDS011;64119;52.070;20.804;2023-11-19T01:12:49;34.30;;;13.50;;
75535;SDS011;64119;52.070;20.804;2023-11-19T01:15:17;31.10;;;14.90;;
75535;SDS011;64119;52.070;20.804;2023-11-19T01:17:48;27.20;;;11.40;;
75535;SDS011;64119;52.070;20.804;2023-11-19T01:20:21;34.50;;;13.80;;
75535;SDS011;64119;52.070;20.804;2023-11-19T01:22:49;26.90;;;11.00;;
75535;SDS011;64119;52.070;20.804;2023-11-19T01:25:18;31.20;;;12.70;;
75535;SDS011;64119;52.070;20.804;2023-11-19T01:27:46;28.90;;;11.70;;
75535;SDS011;64119;52.070;20.804;2023-11-19T01:30:14;31.90;;;12.60;;
75535;SDS011;64119;52.070;20.804;2023-11-19T01:32:41;29.40;;;12.00;;
75535;SDS011;64119;52.070;20.804;2023-11-19T01:35:09;29.50;;;12.40;;
75535;SDS011;64119;52.070;20.804;2023-11-19T01:37:37;29.90;;;13.30;;
75535;SDS011;64119;52.070;20.804;2023-11-19T01:40:05;32.40;;;13.30;;
75535;SDS011;64119;52.070;20.804;2023-11-19T01:42:36;25.20;;;11.40;;
75535;SDS011;64119;52.070;20.804;2023-11-19T01:45:06;24.60;;;10.80;;
75535;SDS011;64119;52.070;20.804;2023-11-19T01:47:38;26.20;;;11.00;;
75535;SDS011;64119;52.070;20.804;2023-11-19T01:50:06;31.30;;;12.80;;
75535;SDS011;64119;52.070;20.804;2023-11-19T01:52:35;29.60;;;12.50;;
75535;SDS011;64119;52.070;20.804;2023-11-19T01:55:06;32.50;;;13.30;;
75535;SDS011;64119;52.070;20.804;2023-11-19T01:57:37;23.40;;;10.50;;
75535;SDS011;64119;52.070;20.804;2023-11-19T02:00:08;30.00;;;11.90;;
75535;SDS011;64119;52.070;20.804;2023-11-19T02:02:40;31.50;;;11.80;;
75535;SDS011;64119;52.070;20.804;2023-11-19T02:05:10;27.20;;;11.20;;
75535;SDS011;64119;52.070;20.804;2023-11-19T02:07:39;34.60;;;14.20;;
75535;SDS011;64119;52.070;20.804;2023-11-19T02:10:07;31.00;;;11.90;;
75535;SDS011;64119;52.070;20.804;2023-11-19T02:12:40;34.50;;;14.50;;
75535;SDS011;64119;52.070;20.804;2023-11-19T02:15:12;36.60;;;14.10;;
75535;SDS011;64119;52.070;20.804;2023-11-19T02:17:40;29.90;;;12.30;;
75535;SDS011;64119;52.070;20.804;2023-11-19T02:20:08;33.40;;;13.20;;
75535;SDS011;64119;52.070;20.804;2023-11-19T02:22:40;26.90;;;12.20;;
75535;SDS011;64119;52.070;20.804;2023-11-19T02:25:09;35.50;;;14.10;;
75535;SDS011;64119;52.070;20.804;2023-11-19T02:27:58;35.30;;;13.30;;
75535;SDS011;64119;52.070;20.804;2023-11-19T02:30:27;31.70;;;13.30;;
75535;SDS011;64119;52.070;20.804;2023-11-19T02:32:56;33.80;;;14.50;;
75535;SDS011;64119;52.070;20.804;2023-11-19T02:35:26;36.80;;;13.00;;
75535;SDS011;64119;52.070;20.804;2023-11-19T02:37:54;30.50;;;12.80;;
75535;SDS011;64119;52.070;20.804;2023-11-19T02:40:22;38.00;;;14.50;;
75535;SDS011;64119;52.070;20.804;2023-11-19T02:45:24;26.30;;;11.80;;
75535;SDS011;64119;52.070;20.804;2023-11-19T02:47:53;26.70;;;10.40;;
75535;SDS011;64119;52.070;20.804;2023-11-19T02:50:22;28.10;;;11.00;;
75535;SDS011;64119;52.070;20.804;2023-11-19T02:52:54;26.30;;;11.10;;
75535;SDS011;64119;52.070;20.804;2023-11-19T02:55:24;29.60;;;12.10;;
75535;SDS011;64119;52.070;20.804;2023-11-19T02:57:53;34.70;;;13.70;;
75535;SDS011;64119;52.070;20.804;2023-11-19T03:00:21;28.60;;;11.40;;
75535;SDS011;64119;52.070;20.804;2023-11-19T03:03:01;32.20;;;12.10;;
75535;SDS011;64119;52.070;20.804;2023-11-19T03:05:48;30.60;;;11.70;;
75535;SDS011;64119;52.070;20.804;2023-11-19T03:08:17;30.00;;;11.90;;
75535;SDS011;64119;52.070;20.804;2023-11-19T03:10:48;27.20;;;10.50;;
75535;SDS011;64119;52.070;20.804;2023-11-19T03:13:16;35.20;;;14.20;;
75535;SDS011;64119;52.070;20.804;2023-11-19T03:15:45;26.00;;;11.70;;
75535;SDS011;64119;52.070;20.804;2023-11-19T03:18:13;33.00;;;11.90;;
75535;SDS011;64119;52.070;20.804;2023-11-19T03:20:41;28.00;;;11.30;;
75535;SDS011;64119;52.070;20.804;2023-11-19T03:23:09;27.10;;;10.60;;
75535;SDS011;64119;52.070;20.804;2023-11-19T03:25:38;33.30;;;13.00;;
75535;SDS011;64119;52.070;20.804;2023-11-19T03:28:05;26.00;;;11.40;;
75535;SDS011;64119;52.070;20.804;2023-11-19T03:30:34;26.00;;;10.80;;
75535;SDS011;64119;52.070;20.804;2023-11-19T03:33:02;24.40;;;10.40;;
75535;SDS011;64119;52.070;20.804;2023-11-19T03:35:30;24.90;;;10.30;;
75535;SDS011;64119;52.070;20.804;2023-11-19T03:37:58;26.70;;;10.80;;
75535;SDS011;64119;52.070;20.804;2023-11-19T03:40:26;25.60;;;9.50;;
75535;SDS011;64119;52.070;20.804;2023-11-19T03:42:55;24.30;;;9.70;;
75535;SDS011;64119;52.070;20.804;2023-11-19T03:45:25;22.00;;;9.20;;
75535;SDS011;64119;52.070;20.804;2023-11-19T03:47:53;29.20;;;11.60;;
75535;SDS011;64119;52.070;20.804;2023-11-19T03:50:21;28.30;;;10.90;;
75535;SDS011;64119;52.070;20.804;2023-11-19T03:52:49;27.40;;;11.70;;
75535;SDS011;64119;52.070;20.804;2023-11-19T03:55:17;25.20;;;11.30;;
75535;SDS011;64119;52.070;20.804;2023-11-19T03:57:45;22.60;;;9.80;;
75535;SDS011;64119;52.070;20.804;2023-11-19T04:00:14;27.60;;;10.50;;
75535;SDS011;64119;52.070;20.804;2023-11-19T04:02:43;27.70;;;9.90;;
75535;SDS011;64119;52.070;20.804;2023-11-19T04:05:12;26.00;;;9.40;;
75535;SDS011;64119;52.070;20.804;2023-11-19T04:07:40;25.70;;;10.50;;
75535;SDS011;64119;52.070;20.804;2023-11-19T04:10:07;25.30;;;11.00;;
75535;SDS011;64119;52.070;20.804;2023-11-19T04:12:35;23.80;;;8.70;;
75535;SDS011;64119;52.070;20.804;2023-11-19T04:15:03;28.10;;;10.60;;
75535;SDS011;64119;52.070;20.804;2023-11-19T04:17:32;26.10;;;9.60;;
75535;SDS011;64119;52.070;20.804;2023-11-19T04:20:00;30.20;;;11.40;;
75535;SDS011;64119;52.070;20.804;2023-11-19T04:22:28;29.60;;;11.90;;
75535;SDS011;64119;52.070;20.804;2023-11-19T04:24:56;24.30;;;9.50;;
75535;SDS011;64119;52.070;20.804;2023-11-19T04:27:25;25.60;;;11.60;;
75535;SDS011;64119;52.070;20.804;2023-11-19T04:29:53;24.50;;;8.90;;
75535;SDS011;64119;52.070;20.804;2023-11-19T04:32:23;30.70;;;12.80;;
75535;SDS011;64119;52.070;20.804;2023-11-19T04:34:53;28.20;;;11.00;;
75535;SDS011;64119;52.070;20.804;2023-11-19T04:37:20;28.10;;;11.10;;
75535;SDS011;64119;52.070;20.804;2023-11-19T04:39:48;29.00;;;12.10;;
75535;SDS011;64119;52.070;20.804;2023-11-19T04:42:16;21.00;;;9.10;;
75535;SDS011;64119;52.070;20.804;2023-11-19T04:44:45;30.50;;;11.70;;
75535;SDS011;64119;52.070;20.804;2023-11-19T04:47:14;29.60;;;10.40;;
75535;SDS011;64119;52.070;20.804;2023-11-19T04:49:42;24.30;;;9.30;;
75535;SDS011;64119;52.070;20.804;2023-11-19T04:52:10;31.70;;;13.60;;
75535;SDS011;64119;52.070;20.804;2023-11-19T04:54:43;30.90;;;14.30;;
75535;SDS011;64119;52.070;20.804;2023-11-19T04:57:11;27.10;;;11.00;;
75535;SDS011;64119;52.070;20.804;2023-11-19T04:59:40;29.30;;;11.90;;
75535;SDS011;64119;52.070;20.804;2023-11-19T05:02:09;25.70;;;9.70;;
75535;SDS011;64119;52.070;20.804;2023-11-19T05:04:37;24.60;;;8.80;;
75535;SDS011;64119;52.070;20.804;2023-11-19T05:07:05;27.10;;;11.70;;
75535;SDS011;64119;52.070;20.804;2023-11-19T05:09:34;24.40;;;10.50;;
75535;SDS011;64119;52.070;20.804;2023-11-19T05:12:02;30.60;;;11.10;;
75535;SDS011;64119;52.070;20.804;2023-11-19T05:14:30;24.90;;;10.00;;
75535;SDS011;64119;52.070;20.804;2023-11-19T05:16:58;30.10;;;12.80;;
75535;SDS011;64119;52.070;20.804;2023-11-19T05:19:26;24.40;;;10.90;;
75535;SDS011;64119;52.070;20.804;2023-11-19T05:21:54;24.80;;;8.70;;
75535;SDS011;64119;52.070;20.804;2023-11-19T05:24:22;21.40;;;8.40;;
75535;SDS011;64119;52.070;20.804;2023-11-19T05:26:50;18.70;;;8.30;;
75535;SDS011;64119;52.070;20.804;2023-11-19T05:29:19;19.60;;;9.20;;
75535;SDS011;64119;52.070;20.804;2023-11-19T05:31:47;23.50;;;8.80;;
75535;SDS011;64119;52.070;20.804;2023-11-19T05:34:15;23.70;;;9.80;;
75535;SDS011;64119;52.070;20.804;2023-11-19T05:36:43;12.40;;;5.50;;
75535;SDS011;64119;52.070;20.804;2023-11-19T05:39:11;21.40;;;9.00;;
75535;SDS011;64119;52.070;20.804;2023-11-19T05:41:38;19.70;;;7.70;;
75535;SDS011;64119;52.070;20.804;2023-11-19T05:44:06;17.20;;;7.40;;
75535;SDS011;64119;52.070;20.804;2023-11-19T05:46:34;17.80;;;8.50;;
75535;SDS011;64119;52.070;20.804;2023-11-19T05:49:10;19.70;;;9.80;;
75535;SDS011;64119;52.070;20.804;2023-11-19T05:51:39;20.30;;;9.30;;
75535;SDS011;64119;52.070;20.804;2023-11-19T05:54:08;21.80;;;9.00;;
75535;SDS011;64119;52.070;20.804;2023-11-19T05:56:37;16.10;;;7.20;;
75535;SDS011;64119;52.070;20.804;2023-11-19T05:59:05;13.20;;;6.50;;
75535;SDS011;64119;52.070;20.804;2023-11-19T06:01:42;16.80;;;8.10;;
75535;SDS011;64119;52.070;20.804;2023-11-19T06:04:10;11.20;;;6.20;;
75535;SDS011;64119;52.070;20.804;2023-11-19T06:06:38;13.00;;;6.50;;
75535;SDS011;64119;52.070;20.804;2023-11-19T06:09:07;14.30;;;7.00;;
75535;SDS011;64119;52.070;20.804;2023-11-19T06:11:37;17.90;;;6.60;;
75535;SDS011;64119;52.070;20.804;2023-11-19T06:14:06;13.50;;;6.90;;
75535;SDS011;64119;52.070;20.804;2023-11-19T06:16:34;10.30;;;4.90;;
75535;SDS011;64119;52.070;20.804;2023-11-19T06:21:32;9.70;;;5.20;;
75535;SDS011;64119;52.070;20.804;2023-11-19T06:24:00;9.80;;;4.80;;
75535;SDS011;64119;52.070;20.804;2023-11-19T06:26:29;7.50;;;3.40;;
75535;SDS011;64119;52.070;20.804;2023-11-19T06:28:56;10.70;;;5.40;;
75535;SDS011;64119;52.070;20.804;2023-11-19T06:31:24;10.80;;;4.50;;
75535;SDS011;64119;52.070;20.804;2023-11-19T06:33:52;11.20;;;5.50;;
75535;SDS011;64119;52.070;20.804;2023-11-19T06:36:21;9.90;;;5.00;;
75535;SDS011;64119;52.070;20.804;2023-11-19T06:38:49;7.90;;;3.80;;
75535;SDS011;64119;52.070;20.804;2023-11-19T06:41:17;9.10;;;4.70;;
75535;SDS011;64119;52.070;20.804;2023-11-19T06:43:45;11.00;;;5.60;;
75535;SDS011;64119;52.070;20.804;2023-11-19T06:46:16;7.20;;;4.00;;
75535;SDS011;64119;52.070;20.804;2023-11-19T06:48:45;11.10;;;4.90;;
75535;SDS011;64119;52.070;20.804;2023-11-19T06:51:13;11.60;;;5.30;;
75535;SDS011;64119;52.070;20.804;2023-11-19T06:53:42;12.90;;;5.70;;
75535;SDS011;64119;52.070;20.804;2023-11-19T06:56:19;11.50;;;5.10;;
75535;SDS011;64119;52.070;20.804;2023-11-19T06:58:50;10.80;;;5.10;;
75535;SDS011;64119;52.070;20.804;2023-11-19T07:01:19;12.50;;;5.50;;
75535;SDS011;64119;52.070;20.804;2023-11-19T07:03:48;13.30;;;5.90;;
75535;SDS011;64119;52.070;20.804;2023-11-19T07:06:17;11.20;;;4.90;;
75535;SDS011;64119;52.070;20.804;2023-11-19T07:08:44;12.30;;;5.90;;
75535;SDS011;64119;52.070;20.804;2023-11-19T07:11:13;11.00;;;5.00;;
75535;SDS011;64119;52.070;20.804;2023-11-19T07:13:44;13.10;;;6.30;;
75535;SDS011;64119;52.070;20.804;2023-11-19T07:16:14;13.10;;;5.70;;
75535;SDS011;64119;52.070;20.804;2023-11-19T07:18:42;11.60;;;5.90;;
75535;SDS011;64119;52.070;20.804;2023-11-19T07:21:12;9.40;;;5.60;;
75535;SDS011;64119;52.070;20.804;2023-11-19T07:23:40;14.30;;;5.90;;
75535;SDS011;64119;52.070;20.804;2023-11-19T07:26:09;10.50;;;5.90;;
75535;SDS011;64119;52.070;20.804;2023-11-19T07:28:37;15.00;;;7.30;;
75535;SDS011;64119;52.070;20.804;2023-11-19T07:31:07;13.70;;;7.00;;
75535;SDS011;64119;52.070;20.804;2023-11-19T07:33:36;12.20;;;5.80;;
75535;SDS011;64119;52.070;20.804;2023-11-19T07:36:04;10.00;;;5.20;;
75535;SDS011;64119;52.070;20.804;2023-11-19T07:38:34;11.70;;;6.50;;
75535;SDS011;64119;52.070;20.804;2023-11-19T07:41:02;9.40;;;5.40;;
75535;SDS011;64119;52.070;20.804;2023-11-19T07:43:32;14.10;;;7.40;;
75535;SDS011;64119;52.070;20.804;2023-11-19T07:46:01;14.00;;;6.70;;
75535;SDS011;64119;52.070;20.804;2023-11-19T07:48:29;12.00;;;6.10;;
75535;SDS011;64119;52.070;20.804;2023-11-19T07:50:57;11.30;;;5.40;;
75535;SDS011;64119;52.070;20.804;2023-11-19T07:53:25;11.90;;;5.90;;
75535;SDS011;64119;52.070;20.804;2023-11-19T07:55:52;12.00;;;5.70;;
75535;SDS011;64119;52.070;20.804;2023-11-19T07:58:20;11.50;;;5.50;;
75535;SDS011;64119;52.070;20.804;2023-11-19T08:00:48;8.60;;;4.80;;
75535;SDS011;64119;52.070;20.804;2023-11-19T08:03:16;16.50;;;6.50;;
75535;SDS011;64119;52.070;20.804;2023-11-19T08:05:45;14.20;;;6.50;;
75535;SDS011;64119;52.070;20.804;2023-11-19T08:08:13;8.30;;;4.70;;
75535;SDS011;64119;52.070;20.804;2023-11-19T08:10:42;13.30;;;7.30;;
75535;SDS011;64119;52.070;20.804;2023-11-19T08:13:12;9.50;;;4.90;;
75535;SDS011;64119;52.070;20.804;2023-11-19T08:15:40;11.20;;;5.40;;
75535;SDS011;64119;52.070;20.804;2023-11-19T08:18:11;11.50;;;5.80;;
75535;SDS011;64119;52.070;20.804;2023-11-19T08:20:41;13.70;;;6.00;;
75535;SDS011;64119;52.070;20.804;2023-11-19T08:23:10;11.00;;;5.30;;
75535;SDS011;64119;52.070;20.804;2023-11-19T08:25:38;12.30;;;6.30;;
75535;SDS011;64119;52.070;20.804;2023-11-19T08:28:06;13.00;;;6.40;;
75535;SDS011;64119;52.070;20.804;2023-11-19T08:30:34;10.30;;;5.50;;
75535;SDS011;64119;52.070;20.804;2023-11-19T08:33:02;16.80;;;6.50;;
75535;SDS011;64119;52.070;20.804;2023-11-19T08:35:34;15.10;;;7.70;;
75535;SDS011;64119;52.070;20.804;2023-11-19T08:38:02;15.70;;;7.00;;
75535;SDS011;64119;52.070;20.804;2023-11-19T08:40:30;10.10;;;5.00;;
75535;SDS011;64119;52.070;20.804;2023-11-19T08:42:58;16.20;;;7.60;;
75535;SDS011;64119;52.070;20.804;2023-11-19T08:45:25;17.00;;;7.90;;
75535;SDS011;64119;52.070;20.804;2023-11-19T08:47:53;13.60;;;6.90;;
75535;SDS011;64119;52.070;20.804;2023-11-19T08:50:21;14.50;;;7.00;;
75535;SDS011;64119;52.070;20.804;2023-11-19T08:52:50;14.60;;;6.90;;
75535;SDS011;64119;52.070;20.804;2023-11-19T08:55:18;12.20;;;5.90;;
75535;SDS011;64119;52.070;20.804;2023-11-19T08:57:46;12.10;;;7.00;;
75535;SDS011;64119;52.070;20.804;2023-11-19T09:00:15;17.30;;;7.50;;
75535;SDS011;64119;52.070;20.804;2023-11-19T09:02:43;14.30;;;7.40;;
75535;SDS011;64119;52.070;20.804;2023-11-19T09:05:12;12.90;;;5.90;;
75535;SDS011;64119;52.070;20.804;2023-11-19T09:07:43;12.80;;;7.60;;
75535;SDS011;64119;52.070;20.804;2023-11-19T09:10:11;10.90;;;5.90;;
75535;SDS011;64119;52.070;20.804;2023-11-19T09:12:39;13.00;;;6.20;;
75535;SDS011;64119;52.070;20.804;2023-11-19T09:15:07;14.50;;;6.90;;
75535;SDS011;64119;52.070;20.804;2023-11-19T09:17:38;16.80;;;7.30;;
75535;SDS011;64119;52.070;20.804;2023-11-19T09:20:06;13.00;;;6.70;;
75535;SDS011;64119;52.070;20.804;2023-11-19T09:22:35;12.90;;;7.40;;
75535;SDS011;64119;52.070;20.804;2023-11-19T09:25:03;12.40;;;6.60;;
75535;SDS011;64119;52.070;20.804;2023-11-19T09:27:32;14.10;;;7.40;;
75535;SDS011;64119;52.070;20.804;2023-11-19T09:30:00;13.70;;;5.90;;
75535;SDS011;64119;52.070;20.804;2023-11-19T09:32:28;18.90;;;8.10;;
75535;SDS011;64119;52.070;20.804;2023-11-19T09:34:56;16.30;;;7.10;;
75535;SDS011;64119;52.070;20.804;2023-11-19T09:37:24;12.00;;;6.50;;
75535;SDS011;64119;52.070;20.804;2023-11-19T09:39:52;15.00;;;7.10;;
75535;SDS011;64119;52.070;20.804;2023-11-19T09:42:21;15.90;;;7.70;;
75535;SDS011;64119;52.070;20.804;2023-11-19T09:44:49;15.50;;;7.30;;
75535;SDS011;64119;52.070;20.804;2023-11-19T09:47:17;15.00;;;8.10;;
75535;SDS011;64119;52.070;20.804;2023-11-19T09:49:46;15.50;;;7.50;;
75535;SDS011;64119;52.070;20.804;2023-11-19T09:52:17;14.90;;;7.00;;
75535;SDS011;64119;52.070;20.804;2023-11-19T09:54:45;15.10;;;7.70;;
75535;SDS011;64119;52.070;20.804;2023-11-19T09:57:12;15.80;;;7.60;;
75535;SDS011;64119;52.070;20.804;2023-11-19T09:59:43;17.80;;;8.00;;
75535;SDS011;64119;52.070;20.804;2023-11-19T10:04:42;14.10;;;7.60;;
75535;SDS011;64119;52.070;20.804;2023-11-19T10:07:12;14.90;;;6.90;;
75535;SDS011;64119;52.070;20.804;2023-11-19T10:09:40;14.20;;;6.70;;
75535;SDS011;64119;52.070;20.804;2023-11-19T10:12:08;15.10;;;6.80;;
75535;SDS011;64119;52.070;20.804;2023-11-19T10:14:36;9.70;;;4.80;;
75535;SDS011;64119;52.070;20.804;2023-11-19T10:17:07;16.60;;;7.20;;
75535;SDS011;64119;52.070;20.804;2023-11-19T10:19:35;16.30;;;6.10;;
75535;SDS011;64119;52.070;20.804;2023-11-19T10:22:06;12.90;;;6.50;;
75535;SDS011;64119;52.070;20.804;2023-11-19T10:24:34;12.50;;;7.40;;
75535;SDS011;64119;52.070;20.804;2023-11-19T10:27:06;15.10;;;7.70;;
75535;SDS011;64119;52.070;20.804;2023-11-19T10:29:36;13.90;;;7.10;;
75535;SDS011;64119;52.070;20.804;2023-11-19T10:32:05;13.70;;;6.40;;
75535;SDS011;64119;52.070;20.804;2023-11-19T10:35:05;16.70;;;7.50;;
75535;SDS011;64119;52.070;20.804;2023-11-19T10:37:34;16.40;;;7.90;;
75535;SDS011;64119;52.070;20.804;2023-11-19T10:40:05;13.80;;;6.80;;
75535;SDS011;64119;52.070;20.804;2023-11-19T10:42:33;14.80;;;8.30;;
75535;SDS011;64119;52.070;20.804;2023-11-19T10:45:01;12.20;;;5.80;;
75535;SDS011;64119;52.070;20.804;2023-11-19T10:47:29;13.90;;;6.00;;
75535;SDS011;64119;52.070;20.804;2023-11-19T10:50:02;13.80;;;6.70;;
75535;SDS011;64119;52.070;20.804;2023-11-19T10:52:31;16.90;;;9.00;;
75535;SDS011;64119;52.070;20.804;2023-11-19T10:55:00;12.90;;;6.90;;
75535;SDS011;64119;52.070;20.804;2023-11-19T10:57:33;15.30;;;7.00;;
75535;SDS011;64119;52.070;20.804;2023-11-19T11:00:04;14.50;;;7.00;;
75535;SDS011;64119;52.070;20.804;2023-11-19T11:05:10;19.70;;;8.90;;
75535;SDS011;64119;52.070;20.804;2023-11-19T11:07:40;14.40;;;7.60;;
75535;SDS011;64119;52.070;20.804;2023-11-19T11:10:09;16.10;;;7.40;;
75535;SDS011;64119;52.070;20.804;2023-11-19T11:12:39;12.60;;;6.70;;
75535;SDS011;64119;52.070;20.804;2023-11-19T11:15:10;18.70;;;7.70;;
75535;SDS011;64119;52.070;20.804;2023-11-19T11:17:42;16.60;;;7.90;;
75535;SDS011;64119;52.070;20.804;2023-11-19T11:20:12;13.10;;;6.10;;
75535;SDS011;64119;52.070;20.804;2023-11-19T11:23:29;15.80;;;8.20;;
75535;SDS011;64119;52.070;20.804;2023-11-19T11:28:59;16.60;;;7.70;;
75535;SDS011;64119;52.070;20.804;2023-11-19T11:37:33;14.20;;;6.80;;
75535;SDS011;64119;52.070;20.804;2023-11-19T11:40:05;13.80;;;7.50;;
75535;SDS011;64119;52.070;20.804;2023-11-19T11:42:38;15.00;;;6.80;;
75535;SDS011;64119;52.070;20.804;2023-11-19T11:45:07;19.50;;;9.40;;
75535;SDS011;64119;52.070;20.804;2023-11-19T11:50:15;17.20;;;7.20;;
75535;SDS011;64119;52.070;20.804;2023-11-19T11:55:37;42.20;;;23.60;;
75535;SDS011;64119;52.070;20.804;2023-11-19T11:58:19;19.90;;;10.00;;
75535;SDS011;64119;52.070;20.804;2023-11-19T12:00:48;20.80;;;9.00;;
75535;SDS011;64119;52.070;20.804;2023-11-19T12:03:18;27.60;;;13.20;;
75535;SDS011;64119;52.070;20.804;2023-11-19T12:05:49;24.20;;;12.20;;
75535;SDS011;64119;52.070;20.804;2023-11-19T12:08:24;23.20;;;11.30;;
75535;SDS011;64119;52.070;20.804;2023-11-19T12:10:54;27.80;;;12.70;;
75535;SDS011;64119;52.070;20.804;2023-11-19T12:16:31;24.90;;;12.00;;
75535;SDS011;64119;52.070;20.804;2023-11-19T12:19:04;24.50;;;13.60;;
75535;SDS011;64119;52.070;20.804;2023-11-19T12:21:33;26.50;;;14.90;;
75535;SDS011;64119;52.070;20.804;2023-11-19T12:24:04;29.30;;;14.70;;
75535;SDS011;64119;52.070;20.804;2023-11-19T12:26:36;24.30;;;10.40;;
75535;SDS011;64119;52.070;20.804;2023-11-19T12:29:05;18.90;;;8.40;;
75535;SDS011;64119;52.070;20.804;2023-11-19T12:31:36;21.30;;;10.10;;
75535;SDS011;64119;52.070;20.804;2023-11-19T12:34:05;31.00;;;14.50;;
75535;SDS011;64119;52.070;20.804;2023-11-19T12:36:35;21.00;;;11.50;;
75535;SDS011;64119;52.070;20.804;2023-11-19T12:39:03;18.70;;;9.80;;
75535;SDS011;64119;52.070;20.804;2023-11-19T12:41:31;20.40;;;10.00;;
75535;SDS011;64119;52.070;20.804;2023-11-19T12:44:08;24.60;;;12.90;;
75535;SDS011;64119;52.070;20.804;2023-11-19T12:46:37;17.70;;;9.10;;
75535;SDS011;64119;52.070;20.804;2023-11-19T12:49:05;20.40;;;11.30;;
75535;SDS011;64119;52.070;20.804;2023-11-19T12:51:35;19.20;;;8.90;;
75535;SDS011;64119;52.070;20.804;2023-11-19T12:54:04;18.00;;;9.20;;
75535;SDS011;64119;52.070;20.804;2023-11-19T12:56:32;15.90;;;8.40;;
75535;SDS011;64119;52.070;20.804;2023-11-19T12:59:10;14.80;;;8.30;;
75535;SDS011;64119;52.070;20.804;2023-11-19T13:01:39;22.80;;;12.10;;
75535;SDS011;64119;52.070;20.804;2023-11-19T13:04:15;23.50;;;11.80;;
75535;SDS011;64119;52.070;20.804;2023-11-19T13:06:47;18.70;;;8.70;;
75535;SDS011;64119;52.070;20.804;2023-11-19T13:09:32;29.00;;;15.40;;
75535;SDS011;64119;52.070;20.804;2023-11-19T13:12:11;20.70;;;10.70;;
75535;SDS011;64119;52.070;20.804;2023-11-19T13:14:40;18.50;;;9.10;;
75535;SDS011;64119;52.070;20.804;2023-11-19T13:17:12;18.60;;;11.20;;
75535;SDS011;64119;52.070;20.804;2023-11-19T13:19:42;18.90;;;9.50;;
75535;SDS011;64119;52.070;20.804;2023-11-19T13:22:09;17.20;;;8.60;;
75535;SDS011;64119;52.070;20.804;2023-11-19T13:24:37;23.00;;;10.50;;
75535;SDS011;64119;52.070;20.804;2023-11-19T13:27:08;28.10;;;11.10;;
75535;SDS011;64119;52.070;20.804;2023-11-19T13:29:36;18.20;;;9.40;;
75535;SDS011;64119;52.070;20.804;2023-11-19T13:32:03;19.80;;;10.30;;
75535;SDS011;64119;52.070;20.804;2023-11-19T13:34:33;29.40;;;14.30;;
75535;SDS011;64119;52.070;20.804;2023-11-19T13:37:01;24.80;;;12.90;;
75535;SDS011;64119;52.070;20.804;2023-11-19T13:39:29;22.50;;;11.60;;
75535;SDS011;64119;52.070;20.804;2023-11-19T13:41:59;21.80;;;11.30;;
75535;SDS011;64119;52.070;20.804;2023-11-19T13:44:30;18.10;;;10.10;;
75535;SDS011;64119;52.070;20.804;2023-11-19T13:46:58;16.40;;;8.30;;
75535;SDS011;64119;52.070;20.804;2023-11-19T13:49:26;20.90;;;10.90;;
75535;SDS011;64119;52.070;20.804;2023-11-19T13:51:54;24.60;;;11.00;;
75535;SDS011;64119;52.070;20.804;2023-11-19T13:54:23;18.20;;;9.50;;
75535;SDS011;64119;52.070;20.804;2023-11-19T13:56:54;14.00;;;7.60;;
75535;SDS011;64119;52.070;20.804;2023-11-19T13:59:23;18.50;;;8.20;;
75535;SDS011;64119;52.070;20.804;2023-11-19T14:01:51;11.70;;;7.00;;
75535;SDS011;64119;52.070;20.804;2023-11-19T14:04:19;16.60;;;8.50;;
75535;SDS011;64119;52.070;20.804;2023-11-19T14:06:47;15.80;;;7.00;;
75535;SDS011;64119;52.070;20.804;2023-11-19T14:09:15;21.10;;;10.50;;
75535;SDS011;64119;52.070;20.804;2023-11-19T14:11:43;21.20;;;9.50;;
75535;SDS011;64119;52.070;20.804;2023-11-19T14:14:11;13.80;;;6.60;;
75535;SDS011;64119;52.070;20.804;2023-11-19T14:16:39;15.70;;;7.90;;
75535;SDS011;64119;52.070;20.804;2023-11-19T14:19:07;17.80;;;7.70;;
75535;SDS011;64119;52.070;20.804;2023-11-19T14:21:35;22.00;;;10.80;;
75535;SDS011;64119;52.070;20.804;2023-11-19T14:24:03;17.80;;;7.90;;
75535;SDS011;64119;52.070;20.804;2023-11-19T14:26:31;21.40;;;11.00;;
75535;SDS011;64119;52.070;20.804;2023-11-19T14:28:59;17.10;;;9.10;;
75535;SDS011;64119;52.070;20.804;2023-11-19T14:31:28;17.10;;;8.00;;
75535;SDS011;64119;52.070;20.804;2023-11-19T14:33:56;19.80;;;10.10;;
75535;SDS011;64119;52.070;20.804;2023-11-19T14:36:24;25.50;;;10.90;;
75535;SDS011;64119;52.070;20.804;2023-11-19T14:38:53;20.10;;;10.00;;
75535;SDS011;64119;52.070;20.804;2023-11-19T14:41:21;17.70;;;8.40;;
75535;SDS011;64119;52.070;20.804;2023-11-19T14:43:50;24.50;;;11.70;;
75535;SDS011;64119;52.070;20.804;2023-11-19T14:46:18;25.90;;;12.20;;
75535;SDS011;64119;52.070;20.804;2023-11-19T14:48:46;24.10;;;13.50;;
75535;SDS011;64119;52.070;20.804;2023-11-19T14:51:14;25.20;;;11.70;;
75535;SDS011;64119;52.070;20.804;2023-11-19T14:53:42;23.30;;;12.40;;
75535;SDS011;64119;52.070;20.804;2023-11-19T14:56:10;21.90;;;12.00;;